Brooks, West Virginia
Current Conditions -  °F | °C
As of 7:06 AM on Thursday 23 Oct 2014 (Local Time) from KBKW Reporting Station
Overcast Overcast  
Wind Chill: 37°   Ceiling: 900
Heat Index: 42°   Visibility: 10mi
Dew Point: 38°   Wind: 8mph
Humidity: 85%   Direction: 330°NNW
Pressure: 30.16"   Gusts: NA
Location:  37.6035°N, 80.8542°W
Report Text: KBKW 231106Z AUTO 33007KT 10SM OVC009 06/03 A3016 RMK AO2 T00560033 TSNO
Loading
Personal Weather Stations






























Interactive Weather Map
Tropical Storm Tracking
New forecast layout! Learn more

10-Day Weather Forecast

Advertisements
Track Severe Weather on mobile